sensor_id;sensor_type;location;lat;lon;timestamp;pressure;altitude;pressure_sealevel;temperature;humidity
55418;BME280;41287;47.554;7.844;2023-07-31T00:01:00;98197.25;;;22.73;57.43
55418;BME280;41287;47.554;7.844;2023-07-31T00:03:25;98204.66;;;22.73;57.64
55418;BME280;41287;47.554;7.844;2023-07-31T00:05:51;98208.19;;;22.73;57.75
55418;BME280;41287;47.554;7.844;2023-07-31T00:08:18;98199.19;;;22.73;57.43
55418;BME280;41287;47.554;7.844;2023-07-31T00:10:44;98197.25;;;22.73;57.75
55418;BME280;41287;47.554;7.844;2023-07-31T00:13:09;98195.31;;;22.74;57.71
55418;BME280;41287;47.554;7.844;2023-07-31T00:15:34;98190.16;;;22.72;57.40
55418;BME280;41287;47.554;7.844;2023-07-31T00:18:00;98186.31;;;22.73;57.79
55418;BME280;41287;47.554;7.844;2023-07-31T00:20:26;98181.97;;;22.72;57.83
55418;BME280;41287;47.554;7.844;2023-07-31T00:22:51;98189.06;;;22.73;57.73
55418;BME280;41287;47.554;7.844;2023-07-31T00:25:17;98183.59;;;22.73;57.39
55418;BME280;41287;47.554;7.844;2023-07-31T00:27:42;98180.06;;;22.73;57.49
55418;BME280;41287;47.554;7.844;2023-07-31T00:30:10;98182.81;;;22.73;57.67
55418;BME280;41287;47.554;7.844;2023-07-31T00:32:35;98180.84;;;22.73;57.71
55418;BME280;41287;47.554;7.844;2023-07-31T00:35:01;98186.31;;;22.73;57.73
55418;BME280;41287;47.554;7.844;2023-07-31T00:37:26;98193.38;;;22.74;57.67
55418;BME280;41287;47.554;7.844;2023-07-31T00:39:52;98180.06;;;22.73;57.30
55418;BME280;41287;47.554;7.844;2023-07-31T00:42:17;98185.53;;;22.73;57.64
55418;BME280;41287;47.554;7.844;2023-07-31T00:44:42;98184.38;;;22.74;57.73
55418;BME280;41287;47.554;7.844;2023-07-31T00:47:08;98185.53;;;22.73;57.64
55418;BME280;41287;47.554;7.844;2023-07-31T00:49:33;98177.34;;;22.73;57.78
55418;BME280;41287;47.554;7.844;2023-07-31T00:51:59;98175.41;;;22.73;57.44
55418;BME280;41287;47.554;7.844;2023-07-31T00:54:24;98180.84;;;22.73;57.58
55418;BME280;41287;47.554;7.844;2023-07-31T00:56:50;98180.06;;;22.73;57.65
55418;BME280;41287;47.554;7.844;2023-07-31T00:59:17;98172.66;;;22.73;57.52
55418;BME280;41287;47.554;7.844;2023-07-31T01:01:44;98177.34;;;22.73;57.57
55418;BME280;41287;47.554;7.844;2023-07-31T01:04:09;98168.31;;;22.72;57.45
55418;BME280;41287;47.554;7.844;2023-07-31T01:06:49;98166.31;;;22.69;57.45
55418;BME280;41287;47.554;7.844;2023-07-31T01:12:03;98177.34;;;22.73;57.54
55418;BME280;41287;47.554;7.844;2023-07-31T01:14:28;98173.78;;;22.72;57.34
55418;BME280;41287;47.554;7.844;2023-07-31T01:16:54;98173.78;;;22.72;57.45
55418;BME280;41287;47.554;7.844;2023-07-31T01:19:23;98171.88;;;22.73;57.61
55418;BME280;41287;47.554;7.844;2023-07-31T01:22:16;98162.44;;;22.70;57.55
55418;BME280;41287;47.554;7.844;2023-07-31T01:25:05;98166.41;;;22.73;57.61
55418;BME280;41287;47.554;7.844;2023-07-31T01:27:44;98160.13;;;22.72;57.36
55418;BME280;41287;47.554;7.844;2023-07-31T01:30:15;98159.00;;;22.73;57.26
55418;BME280;41287;47.554;7.844;2023-07-31T01:32:43;98147.28;;;22.73;57.67
55418;BME280;41287;47.554;7.844;2023-07-31T01:35:09;98149.19;;;22.72;57.51
55418;BME280;41287;47.554;7.844;2023-07-31T01:37:35;98149.19;;;22.72;57.34
55418;BME280;41287;47.554;7.844;2023-07-31T01:40:00;98146.47;;;22.72;57.74
55418;BME280;41287;47.554;7.844;2023-07-31T01:42:26;98142.19;;;22.71;57.53
55418;BME280;41287;47.554;7.844;2023-07-31T01:44:51;98135.53;;;22.72;57.61
55418;BME280;41287;47.554;7.844;2023-07-31T01:47:18;98140.25;;;22.72;57.71
55418;BME280;41287;47.554;7.844;2023-07-31T01:49:43;98141.00;;;22.72;57.70
55418;BME280;41287;47.554;7.844;2023-07-31T01:52:08;98141.81;;;22.73;57.36
55418;BME280;41287;47.554;7.844;2023-07-31T01:54:34;98141.00;;;22.72;57.64
55418;BME280;41287;47.554;7.844;2023-07-31T01:57:01;98141.00;;;22.72;57.74
55418;BME280;41287;47.554;7.844;2023-07-31T01:59:27;98130.91;;;22.73;57.73
55418;BME280;41287;47.554;7.844;2023-07-31T02:01:53;98125.44;;;22.73;57.26
55418;BME280;41287;47.554;7.844;2023-07-31T02:04:18;98128.97;;;22.73;57.73
55418;BME280;41287;47.554;7.844;2023-07-31T02:19:48;98115.66;;;22.72;57.76
55418;BME280;41287;47.554;7.844;2023-07-31T02:22:14;98127.72;;;22.71;57.83
55418;BME280;41287;47.554;7.844;2023-07-31T02:24:39;98114.84;;;22.71;57.63
55418;BME280;41287;47.554;7.844;2023-07-31T02:27:06;98114.06;;;22.71;57.47
55418;BME280;41287;47.554;7.844;2023-07-31T02:29:31;98112.13;;;22.71;57.47
55418;BME280;41287;47.554;7.844;2023-07-31T02:31:57;98109.41;;;22.71;57.54
55418;BME280;41287;47.554;7.844;2023-07-31T02:34:22;98108.22;;;22.72;57.42
55418;BME280;41287;47.554;7.844;2023-07-31T02:36:47;98105.06;;;22.70;57.82
55418;BME280;41287;47.554;7.844;2023-07-31T02:39:19;98105.06;;;22.70;57.93
55418;BME280;41287;47.554;7.844;2023-07-31T02:41:44;98102.00;;;22.72;57.78
55418;BME280;41287;47.554;7.844;2023-07-31T02:44:09;98100.03;;;22.72;57.42
55418;BME280;41287;47.554;7.844;2023-07-31T02:46:35;98093.00;;;22.71;57.37
55418;BME280;41287;47.554;7.844;2023-07-31T02:49:00;98095.75;;;22.71;57.40
55418;BME280;41287;47.554;7.844;2023-07-31T02:51:26;98094.94;;;22.71;57.52
55418;BME280;41287;47.554;7.844;2023-07-31T02:53:51;98096.53;;;22.72;57.44
55418;BME280;41287;47.554;7.844;2023-07-31T02:56:16;98087.53;;;22.71;57.51
55418;BME280;41287;47.554;7.844;2023-07-31T02:58:42;98091.06;;;22.72;57.60
55418;BME280;41287;47.554;7.844;2023-07-31T03:01:07;98093.81;;;22.72;57.61
55418;BME280;41287;47.554;7.844;2023-07-31T03:03:33;98100.03;;;22.72;57.80
55418;BME280;41287;47.554;7.844;2023-07-31T03:05:58;98103.56;;;22.73;57.77
55418;BME280;41287;47.554;7.844;2023-07-31T03:08:23;98100.84;;;22.73;57.80
55418;BME280;41287;47.554;7.844;2023-07-31T03:10:49;98111.78;;;22.73;57.71
55418;BME280;41287;47.554;7.844;2023-07-31T03:13:16;98110.19;;;22.72;57.54
55418;BME280;41287;47.554;7.844;2023-07-31T03:15:42;98110.94;;;22.72;57.59
55418;BME280;41287;47.554;7.844;2023-07-31T03:18:08;98119.16;;;22.72;57.81
55418;BME280;41287;47.554;7.844;2023-07-31T03:20:34;98130.06;;;22.72;57.42
55418;BME280;41287;47.554;7.844;2023-07-31T03:23:01;98128.53;;;22.71;57.33
55418;BME280;41287;47.554;7.844;2023-07-31T03:25:26;98119.97;;;22.73;57.66
55418;BME280;41287;47.554;7.844;2023-07-31T03:27:52;98123.06;;;22.71;57.46
55418;BME280;41287;47.554;7.844;2023-07-31T03:30:17;98123.84;;;22.72;57.58
55418;BME280;41287;47.554;7.844;2023-07-31T03:32:42;98123.84;;;22.72;57.46
55418;BME280;41287;47.554;7.844;2023-07-31T03:35:08;98134.78;;;22.72;57.50
55418;BME280;41287;47.554;7.844;2023-07-31T03:37:33;98131.25;;;22.71;57.44
55418;BME280;41287;47.554;7.844;2023-07-31T03:39:59;98130.06;;;22.72;57.78
55418;BME280;41287;47.554;7.844;2023-07-31T03:42:24;98124.59;;;22.72;57.89
55418;BME280;41287;47.554;7.844;2023-07-31T03:44:49;98134.78;;;22.72;57.72
55418;BME280;41287;47.554;7.844;2023-07-31T03:47:15;98123.06;;;22.71;57.82
55418;BME280;41287;47.554;7.844;2023-07-31T03:49:40;98133.97;;;22.71;57.55
55418;BME280;41287;47.554;7.844;2023-07-31T03:52:07;98123.84;;;22.72;57.82
55418;BME280;41287;47.554;7.844;2023-07-31T03:54:34;98121.88;;;22.72;57.72
55418;BME280;41287;47.554;7.844;2023-07-31T03:56:59;98130.06;;;22.72;57.49
55418;BME280;41287;47.554;7.844;2023-07-31T03:59:25;98123.84;;;22.72;57.52
55418;BME280;41287;47.554;7.844;2023-07-31T04:01:50;98121.13;;;22.72;57.69
55418;BME280;41287;47.554;7.844;2023-07-31T04:04:15;98116.00;;;22.70;57.47
55418;BME280;41287;47.554;7.844;2023-07-31T04:06:40;98126.56;;;22.72;57.82
55418;BME280;41287;47.554;7.844;2023-07-31T04:09:08;98125.78;;;22.71;57.38
55418;BME280;41287;47.554;7.844;2023-07-31T04:11:33;98121.13;;;22.72;57.52
55418;BME280;41287;47.554;7.844;2023-07-31T04:13:59;98117.59;;;22.71;57.72
55418;BME280;41287;47.554;7.844;2023-07-31T04:16:24;98110.19;;;22.72;57.85
55418;BME280;41287;47.554;7.844;2023-07-31T04:18:49;98123.06;;;22.71;57.60
55418;BME280;41287;47.554;7.844;2023-07-31T04:21:17;98131.25;;;22.71;57.47
55418;BME280;41287;47.554;7.844;2023-07-31T04:23:43;98130.47;;;22.71;57.76
55418;BME280;41287;47.554;7.844;2023-07-31T04:26:08;98125.00;;;22.71;57.32
55418;BME280;41287;47.554;7.844;2023-07-31T04:28:33;98137.84;;;22.70;57.48
55418;BME280;41287;47.554;7.844;2023-07-31T04:30:59;98130.47;;;22.71;57.77
55418;BME280;41287;47.554;7.844;2023-07-31T04:33:24;98127.34;;;22.72;57.55
55418;BME280;41287;47.554;7.844;2023-07-31T04:35:51;98129.31;;;22.72;57.39
55418;BME280;41287;47.554;7.844;2023-07-31T04:38:18;98129.31;;;22.72;57.39
55418;BME280;41287;47.554;7.844;2023-07-31T04:40:44;98125.78;;;22.71;57.40
55418;BME280;41287;47.554;7.844;2023-07-31T04:43:09;98123.06;;;22.71;57.31
55418;BME280;41287;47.554;7.844;2023-07-31T04:45:35;98119.53;;;22.71;57.75
55418;BME280;41287;47.554;7.844;2023-07-31T04:48:00;98121.13;;;22.72;57.78
55418;BME280;41287;47.554;7.844;2023-07-31T04:50:25;98116.78;;;22.71;57.72
55418;BME280;41287;47.554;7.844;2023-07-31T04:52:51;98111.34;;;22.71;57.58
55418;BME280;41287;47.554;7.844;2023-07-31T04:55:16;98119.53;;;22.71;57.63
55418;BME280;41287;47.554;7.844;2023-07-31T04:57:44;98114.06;;;22.71;57.81
55418;BME280;41287;47.554;7.844;2023-07-31T05:00:10;98119.53;;;22.71;57.74
55418;BME280;41287;47.554;7.844;2023-07-31T05:02:35;98129.31;;;22.72;57.48
55418;BME280;41287;47.554;7.844;2023-07-31T05:05:01;98127.34;;;22.72;57.83
55418;BME280;41287;47.554;7.844;2023-07-31T05:07:26;98129.66;;;22.70;57.51
55418;BME280;41287;47.554;7.844;2023-07-31T05:09:51;98130.47;;;22.71;57.69
55418;BME280;41287;47.554;7.844;2023-07-31T05:12:16;98127.72;;;22.71;57.58
55418;BME280;41287;47.554;7.844;2023-07-31T05:14:42;98138.66;;;22.71;57.52
55418;BME280;41287;47.554;7.844;2023-07-31T05:17:07;98132.03;;;22.72;57.85
55418;BME280;41287;47.554;7.844;2023-07-31T05:19:33;98138.66;;;22.71;57.79
55418;BME280;41287;47.554;7.844;2023-07-31T05:22:00;98149.56;;;22.71;57.68
55418;BME280;41287;47.554;7.844;2023-07-31T05:24:25;98149.56;;;22.71;57.74
55418;BME280;41287;47.554;7.844;2023-07-31T05:26:51;98138.66;;;22.71;57.84
55418;BME280;41287;47.554;7.844;2023-07-31T05:29:16;98132.41;;;22.70;57.89
55418;BME280;41287;47.554;7.844;2023-07-31T05:32:07;98145.69;;;22.72;57.27
55418;BME280;41287;47.554;7.844;2023-07-31T05:34:58;98150.38;;;22.71;57.80
55418;BME280;41287;47.554;7.844;2023-07-31T05:37:27;98137.84;;;22.70;57.53
55418;BME280;41287;47.554;7.844;2023-07-31T05:39:53;98137.84;;;22.70;57.42
55418;BME280;41287;47.554;7.844;2023-07-31T05:42:18;98144.91;;;22.71;57.75
55418;BME280;41287;47.554;7.844;2023-07-31T05:44:43;98138.22;;;22.69;57.60
55418;BME280;41287;47.554;7.844;2023-07-31T05:47:09;98135.91;;;22.71;57.84
55418;BME280;41287;47.554;7.844;2023-07-31T05:49:34;98135.91;;;22.71;57.55
55418;BME280;41287;47.554;7.844;2023-07-31T05:52:00;98126.94;;;22.70;57.82
55418;BME280;41287;47.554;7.844;2023-07-31T05:54:25;98115.22;;;22.70;57.48
55418;BME280;41287;47.554;7.844;2023-07-31T05:56:50;98113.28;;;22.70;57.56
55418;BME280;41287;47.554;7.844;2023-07-31T05:59:16;98117.94;;;22.70;57.82
55418;BME280;41287;47.554;7.844;2023-07-31T06:01:42;98126.94;;;22.70;57.63
55418;BME280;41287;47.554;7.844;2023-07-31T06:04:07;98130.47;;;22.71;57.53
55418;BME280;41287;47.554;7.844;2023-07-31T06:06:34;98117.16;;;22.69;57.56
55418;BME280;41287;47.554;7.844;2023-07-31T06:08:59;98124.19;;;22.70;57.74
55418;BME280;41287;47.554;7.844;2023-07-31T06:11:25;98121.47;;;22.70;57.73
55418;BME280;41287;47.554;7.844;2023-07-31T06:13:50;98119.88;;;22.69;57.71
55418;BME280;41287;47.554;7.844;2023-07-31T06:16:16;98125.00;;;22.71;57.49
55418;BME280;41287;47.554;7.844;2023-07-31T06:18:42;98130.47;;;22.71;57.53
55418;BME280;41287;47.554;7.844;2023-07-31T06:21:08;98124.19;;;22.70;57.69
55418;BME280;41287;47.554;7.844;2023-07-31T06:23:35;98126.94;;;22.70;57.88
55418;BME280;41287;47.554;7.844;2023-07-31T06:26:00;98128.88;;;22.70;57.45
55418;BME280;41287;47.554;7.844;2023-07-31T06:28:29;98122.63;;;22.69;57.69
55418;BME280;41287;47.554;7.844;2023-07-31T06:30:55;98122.25;;;22.71;57.60
55418;BME280;41287;47.554;7.844;2023-07-31T06:33:21;98113.28;;;22.70;57.70
55418;BME280;41287;47.554;7.844;2023-07-31T06:35:46;98103.50;;;22.69;57.70
55418;BME280;41287;47.554;7.844;2023-07-31T06:38:11;98104.28;;;22.70;57.81
55418;BME280;41287;47.554;7.844;2023-07-31T06:40:37;98098.81;;;22.70;57.41
55418;BME280;41287;47.554;7.844;2023-07-31T06:43:02;98087.91;;;22.70;57.31
55418;BME280;41287;47.554;7.844;2023-07-31T06:45:36;98085.16;;;22.70;57.71
55418;BME280;41287;47.554;7.844;2023-07-31T06:48:02;98095.28;;;22.69;57.36
55418;BME280;41287;47.554;7.844;2023-07-31T06:50:29;98089.84;;;22.69;57.75
55418;BME280;41287;47.554;7.844;2023-07-31T06:52:54;98086.31;;;22.69;57.48
55418;BME280;41287;47.554;7.844;2023-07-31T06:55:21;98089.84;;;22.69;57.68
55418;BME280;41287;47.554;7.844;2023-07-31T06:57:52;98085.16;;;22.70;57.83
55418;BME280;41287;47.554;7.844;2023-07-31T07:00:19;98087.09;;;22.69;57.31
55418;BME280;41287;47.554;7.844;2023-07-31T07:02:44;98084.38;;;22.69;57.63
55418;BME280;41287;47.554;7.844;2023-07-31T07:05:12;98090.63;;;22.70;57.45
55418;BME280;41287;47.554;7.844;2023-07-31T07:07:38;98088.25;;;22.68;57.45
55418;BME280;41287;47.554;7.844;2023-07-31T07:10:04;98099.63;;;22.70;57.72
55418;BME280;41287;47.554;7.844;2023-07-31T07:12:31;98089.84;;;22.69;57.38
55418;BME280;41287;47.554;7.844;2023-07-31T07:14:58;98101.56;;;22.70;57.69
55418;BME280;41287;47.554;7.844;2023-07-31T07:17:24;98099.63;;;22.70;57.37
55418;BME280;41287;47.554;7.844;2023-07-31T07:19:50;98097.25;;;22.69;57.82
55418;BME280;41287;47.554;7.844;2023-07-31T07:22:15;98107.03;;;22.70;57.41
55418;BME280;41287;47.554;7.844;2023-07-31T07:24:41;98112.47;;;22.70;57.75
55418;BME280;41287;47.554;7.844;2023-07-31T07:27:06;98116.34;;;22.69;57.43
55418;BME280;41287;47.554;7.844;2023-07-31T07:29:33;98117.16;;;22.69;57.74
55418;BME280;41287;47.554;7.844;2023-07-31T07:32:01;98106.22;;;22.69;57.68
55418;BME280;41287;47.554;7.844;2023-07-31T07:34:28;98107.03;;;22.70;57.85
55418;BME280;41287;47.554;7.844;2023-07-31T07:36:54;98101.91;;;22.68;57.57
55418;BME280;41287;47.554;7.844;2023-07-31T07:39:20;98103.50;;;22.69;57.63
55418;BME280;41287;47.554;7.844;2023-07-31T07:41:45;98104.28;;;22.70;57.49
55418;BME280;41287;47.554;7.844;2023-07-31T07:44:11;98096.09;;;22.70;57.59
55418;BME280;41287;47.554;7.844;2023-07-31T07:46:37;98086.31;;;22.69;57.62
55418;BME280;41287;47.554;7.844;2023-07-31T07:49:02;98085.53;;;22.68;57.41
55418;BME280;41287;47.554;7.844;2023-07-31T07:51:28;98080.06;;;22.68;57.82
55418;BME280;41287;47.554;7.844;2023-07-31T07:53:55;98084.72;;;22.68;57.85
55418;BME280;41287;47.554;7.844;2023-07-31T07:56:20;98074.59;;;22.68;57.42
55418;BME280;41287;47.554;7.844;2023-07-31T07:58:48;98069.13;;;22.68;57.55
55418;BME280;41287;47.554;7.844;2023-07-31T08:01:14;98065.59;;;22.68;57.53
55418;BME280;41287;47.554;7.844;2023-07-31T08:03:41;98062.88;;;22.68;57.68
55418;BME280;41287;47.554;7.844;2023-07-31T08:06:06;98065.59;;;22.68;57.46
55418;BME280;41287;47.554;7.844;2023-07-31T08:08:34;98069.13;;;22.68;57.75
55418;BME280;41287;47.554;7.844;2023-07-31T08:11:24;98075.75;;;22.67;57.49
55418;BME280;41287;47.554;7.844;2023-07-31T08:13:49;98065.59;;;22.68;57.42
55418;BME280;41287;47.554;7.844;2023-07-31T08:16:15;98068.34;;;22.68;57.92
55418;BME280;41287;47.554;7.844;2023-07-31T08:21:57;98064.03;;;22.67;57.52
55418;BME280;41287;47.554;7.844;2023-07-31T08:24:23;98058.22;;;22.68;57.54
55418;BME280;41287;47.554;7.844;2023-07-31T08:26:48;98062.09;;;22.67;57.85
55418;BME280;41287;47.554;7.844;2023-07-31T08:29:13;98056.63;;;22.67;57.59
55418;BME280;41287;47.554;7.844;2023-07-31T08:31:40;98053.88;;;22.67;57.42
55418;BME280;41287;47.554;7.844;2023-07-31T08:34:06;98044.53;;;22.68;57.75
55418;BME280;41287;47.554;7.844;2023-07-31T08:36:31;98040.22;;;22.67;57.59
55418;BME280;41287;47.554;7.844;2023-07-31T08:38:57;98038.28;;;22.68;57.49
55418;BME280;41287;47.554;7.844;2023-07-31T08:41:22;98038.28;;;22.68;57.53
55418;BME280;41287;47.554;7.844;2023-07-31T08:43:49;98040.22;;;22.67;57.52
55418;BME280;41287;47.554;7.844;2023-07-31T08:46:15;98042.16;;;22.67;57.69
55418;BME280;41287;47.554;7.844;2023-07-31T08:48:42;98040.22;;;22.67;57.49
55418;BME280;41287;47.554;7.844;2023-07-31T08:51:08;98047.28;;;22.68;57.89
55418;BME280;41287;47.554;7.844;2023-07-31T08:53:35;98043.75;;;22.68;57.53
55418;BME280;41287;47.554;7.844;2023-07-31T08:56:01;98039.44;;;22.67;57.41
55418;BME280;41287;47.554;7.844;2023-07-31T08:58:30;98041.03;;;22.68;57.69
55418;BME280;41287;47.554;7.844;2023-07-31T09:00:57;98042.97;;;22.67;57.61
55418;BME280;41287;47.554;7.844;2023-07-31T09:03:24;98040.22;;;22.67;57.75
55418;BME280;41287;47.554;7.844;2023-07-31T09:05:50;98038.28;;;22.68;57.51
55418;BME280;41287;47.554;7.844;2023-07-31T09:08:19;98043.75;;;22.68;57.63
55418;BME280;41287;47.554;7.844;2023-07-31T09:10:46;98032.03;;;22.67;57.88
55418;BME280;41287;47.554;7.844;2023-07-31T09:13:12;98035.56;;;22.68;57.78
55418;BME280;41287;47.554;7.844;2023-07-31T09:15:45;98026.94;;;22.66;57.66
55418;BME280;41287;47.554;7.844;2023-07-31T09:18:14;98028.50;;;22.67;57.62
55418;BME280;41287;47.554;7.844;2023-07-31T09:20:43;98028.50;;;22.67;57.79
55418;BME280;41287;47.554;7.844;2023-07-31T09:23:13;98018.38;;;22.67;57.77
55418;BME280;41287;47.554;7.844;2023-07-31T09:25:41;98019.16;;;22.68;57.74
55418;BME280;41287;47.554;7.844;2023-07-31T09:28:09;98015.66;;;22.67;57.72
55418;BME280;41287;47.554;7.844;2023-07-31T09:30:49;98021.47;;;22.66;57.59
55418;BME280;41287;47.554;7.844;2023-07-31T09:33:15;98012.13;;;22.67;57.51
55418;BME280;41287;47.554;7.844;2023-07-31T09:35:41;98012.91;;;22.67;57.90
55418;BME280;41287;47.554;7.844;2023-07-31T09:38:14;98006.66;;;22.67;57.50
55418;BME280;41287;47.554;7.844;2023-07-31T09:40:41;98011.78;;;22.68;57.60
55418;BME280;41287;47.554;7.844;2023-07-31T09:43:11;98013.72;;;22.68;57.50
55418;BME280;41287;47.554;7.844;2023-07-31T09:45:41;97999.25;;;22.67;57.50
55418;BME280;41287;47.554;7.844;2023-07-31T09:48:15;97988.69;;;22.66;57.90
55418;BME280;41287;47.554;7.844;2023-07-31T09:50:46;97988.34;;;22.67;57.37
55418;BME280;41287;47.554;7.844;2023-07-31T09:53:14;97985.59;;;22.67;57.78
55418;BME280;41287;47.554;7.844;2023-07-31T09:55:41;97974.69;;;22.67;57.80
55418;BME280;41287;47.554;7.844;2023-07-31T09:58:09;97961.03;;;22.67;57.36
55418;BME280;41287;47.554;7.844;2023-07-31T10:00:35;97955.56;;;22.67;57.72
55418;BME280;41287;47.554;7.844;2023-07-31T10:03:08;97952.44;;;22.65;57.71
55418;BME280;41287;47.554;7.844;2023-07-31T10:05:36;97952.81;;;22.67;57.85
55418;BME280;41287;47.554;7.844;2023-07-31T10:08:03;97957.50;;;22.67;57.50
55418;BME280;41287;47.554;7.844;2023-07-31T10:10:31;97952.03;;;22.67;57.43
55418;BME280;41287;47.554;7.844;2023-07-31T10:12:57;97958.28;;;22.67;57.69
55418;BME280;41287;47.554;7.844;2023-07-31T10:15:23;97945.78;;;22.66;57.90
55418;BME280;41287;47.554;7.844;2023-07-31T10:17:50;97943.06;;;22.66;57.57
55418;BME280;41287;47.554;7.844;2023-07-31T10:20:16;97934.84;;;22.66;57.45
55418;BME280;41287;47.554;7.844;2023-07-31T10:22:44;97934.06;;;22.66;57.44
55418;BME280;41287;47.554;7.844;2023-07-31T10:25:13;97930.19;;;22.67;57.57
55418;BME280;41287;47.554;7.844;2023-07-31T10:27:40;97932.91;;;22.67;57.68
55418;BME280;41287;47.554;7.844;2023-07-31T10:30:08;97924.72;;;22.67;57.54
55418;BME280;41287;47.554;7.844;2023-07-31T10:32:34;97924.72;;;22.67;57.63
55418;BME280;41287;47.554;7.844;2023-07-31T10:35:01;97914.59;;;22.67;57.50
55418;BME280;41287;47.554;7.844;2023-07-31T10:37:30;97918.47;;;22.66;57.55
55418;BME280;41287;47.554;7.844;2023-07-31T10:40:04;97914.94;;;22.66;57.76
55418;BME280;41287;47.554;7.844;2023-07-31T10:45:00;97903.66;;;22.67;57.68
55418;BME280;41287;47.554;7.844;2023-07-31T10:47:26;97897.41;;;22.67;57.42
55418;BME280;41287;47.554;7.844;2023-07-31T10:49:51;97891.16;;;22.66;57.41
55418;BME280;41287;47.554;7.844;2023-07-31T10:52:21;97889.59;;;22.65;57.51
55418;BME280;41287;47.554;7.844;2023-07-31T10:57:44;97896.63;;;22.66;57.73
55418;BME280;41287;47.554;7.844;2023-07-31T11:00:27;97884.50;;;22.64;57.71
55418;BME280;41287;47.554;7.844;2023-07-31T11:03:04;97882.56;;;22.64;57.88
55418;BME280;41287;47.554;7.844;2023-07-31T11:05:59;97890.75;;;22.64;57.46
55418;BME280;41287;47.554;7.844;2023-07-31T11:08:31;97886.88;;;22.65;57.83
55418;BME280;41287;47.554;7.844;2023-07-31T11:13:33;97884.91;;;22.66;57.76
55418;BME280;41287;47.554;7.844;2023-07-31T11:15:59;97885.69;;;22.66;57.54
55418;BME280;41287;47.554;7.844;2023-07-31T11:18:27;97875.94;;;22.65;57.74
55418;BME280;41287;47.554;7.844;2023-07-31T11:20:53;97868.53;;;22.66;57.52
55418;BME280;41287;47.554;7.844;2023-07-31T11:23:19;97862.28;;;22.65;57.78
55418;BME280;41287;47.554;7.844;2023-07-31T11:26:10;97852.53;;;22.64;57.58
55418;BME280;41287;47.554;7.844;2023-07-31T11:28:35;97856.03;;;22.65;57.60
55418;BME280;41287;47.554;7.844;2023-07-31T11:31:02;97852.91;;;22.66;57.52
55418;BME280;41287;47.554;7.844;2023-07-31T11:33:28;97849.41;;;22.66;57.58
55418;BME280;41287;47.554;7.844;2023-07-31T11:35:53;97855.66;;;22.66;57.41
55418;BME280;41287;47.554;7.844;2023-07-31T11:38:28;97850.19;;;22.66;57.76
55418;BME280;41287;47.554;7.844;2023-07-31T11:40:57;97846.66;;;22.66;57.86
55418;BME280;41287;47.554;7.844;2023-07-31T11:43:23;97845.91;;;22.65;57.83
55418;BME280;41287;47.554;7.844;2023-07-31T11:45:54;97854.09;;;22.65;57.79
55418;BME280;41287;47.554;7.844;2023-07-31T11:48:22;97838.47;;;22.66;57.62
55418;BME280;41287;47.554;7.844;2023-07-31T11:50:52;97838.88;;;22.64;57.50
55418;BME280;41287;47.554;7.844;2023-07-31T11:53:26;97826.78;;;22.65;57.90
55418;BME280;41287;47.554;7.844;2023-07-31T11:55:52;97824.06;;;22.65;57.72
55418;BME280;41287;47.554;7.844;2023-07-31T11:58:19;97824.06;;;22.65;57.85
55418;BME280;41287;47.554;7.844;2023-07-31T12:00:45;97831.06;;;22.66;57.51
55418;BME280;41287;47.554;7.844;2023-07-31T12:03:11;97824.06;;;22.65;57.73
55418;BME280;41287;47.554;7.844;2023-07-31T12:05:37;97826.78;;;22.65;57.45
55418;BME280;41287;47.554;7.844;2023-07-31T12:08:09;97810.41;;;22.65;57.39
55418;BME280;41287;47.554;7.844;2023-07-31T12:10:36;97810.41;;;22.65;57.69
55418;BME280;41287;47.554;7.844;2023-07-31T12:13:04;97811.97;;;22.66;57.42
55418;BME280;41287;47.554;7.844;2023-07-31T12:15:36;97811.16;;;22.66;57.58
55418;BME280;41287;47.554;7.844;2023-07-31T12:18:08;97806.88;;;22.65;57.70
55418;BME280;41287;47.554;7.844;2023-07-31T12:20:34;97806.50;;;22.66;57.36
55418;BME280;41287;47.554;7.844;2023-07-31T12:22:59;97801.41;;;22.65;57.77
55418;BME280;41287;47.554;7.844;2023-07-31T12:25:29;97790.50;;;22.65;57.43
55418;BME280;41287;47.554;7.844;2023-07-31T12:27:56;97792.03;;;22.66;57.78
55418;BME280;41287;47.554;7.844;2023-07-31T12:30:33;97781.88;;;22.63;57.56
55418;BME280;41287;47.554;7.844;2023-07-31T12:33:06;97774.09;;;22.65;57.46
55418;BME280;41287;47.554;7.844;2023-07-31T12:35:36;97773.31;;;22.64;57.47
55418;BME280;41287;47.554;7.844;2023-07-31T12:38:03;97763.97;;;22.65;57.60
55418;BME280;41287;47.554;7.844;2023-07-31T12:40:28;97771.00;;;22.66;57.50
55418;BME280;41287;47.554;7.844;2023-07-31T12:42:53;97765.91;;;22.65;57.59
55418;BME280;41287;47.554;7.844;2023-07-31T12:45:19;97763.97;;;22.65;57.49
55418;BME280;41287;47.554;7.844;2023-07-31T12:47:44;97761.25;;;22.65;57.87
55418;BME280;41287;47.554;7.844;2023-07-31T12:50:09;97750.31;;;22.65;57.76
55418;BME280;41287;47.554;7.844;2023-07-31T12:52:34;97753.06;;;22.65;57.51
55418;BME280;41287;47.554;7.844;2023-07-31T12:55:00;97753.06;;;22.65;58.02
55418;BME280;41287;47.554;7.844;2023-07-31T12:57:25;97745.63;;;22.66;57.79
55418;BME280;41287;47.554;7.844;2023-07-31T12:59:50;97735.09;;;22.64;57.81
55418;BME280;41287;47.554;7.844;2023-07-31T13:02:16;97735.88;;;22.65;57.44
55418;BME280;41287;47.554;7.844;2023-07-31T13:04:41;97724.94;;;22.65;57.76
55418;BME280;41287;47.554;7.844;2023-07-31T13:07:08;97722.22;;;22.65;57.65
55418;BME280;41287;47.554;7.844;2023-07-31T13:09:33;97728.47;;;22.65;57.56
55418;BME280;41287;47.554;7.844;2023-07-31T13:11:59;97724.16;;;22.64;57.40
55418;BME280;41287;47.554;7.844;2023-07-31T13:14:24;97719.50;;;22.65;57.85
55418;BME280;41287;47.554;7.844;2023-07-31T13:16:49;97716.38;;;22.66;57.54
55418;BME280;41287;47.554;7.844;2023-07-31T13:19:15;97722.22;;;22.65;57.52
55418;BME280;41287;47.554;7.844;2023-07-31T13:21:40;97723.00;;;22.65;57.37
55418;BME280;41287;47.554;7.844;2023-07-31T13:24:05;97719.50;;;22.65;57.64
55418;BME280;41287;47.554;7.844;2023-07-31T13:26:31;97718.31;;;22.66;57.52